sensor_id;sensor_type;location;lat;lon;timestamp;temperature;humidity
21259;DHT22;10787;53.364;-1.480;2024-03-29T00:00:18;6.90;1.00
21259;DHT22;10787;53.364;-1.480;2024-03-29T00:03:03;6.90;99.90
21259;DHT22;10787;53.364;-1.480;2024-03-29T00:05:48;6.90;99.90
21259;DHT22;10787;53.364;-1.480;2024-03-29T00:08:32;6.90;1.00
21259;DHT22;10787;53.364;-1.480;2024-03-29T00:11:15;7.00;1.00
21259;DHT22;10787;53.364;-1.480;2024-03-29T00:13:59;6.90;99.90
21259;DHT22;10787;53.364;-1.480;2024-03-29T00:16:44;6.90;1.00
21259;DHT22;10787;53.364;-1.480;2024-03-29T00:19:28;6.80;1.00
21259;DHT22;10787;53.364;-1.480;2024-03-29T00:22:12;6.80;99.90
21259;DHT22;10787;53.364;-1.480;2024-03-29T00:24:56;6.70;99.90
21259;DHT22;10787;53.364;-1.480;2024-03-29T00:27:40;6.70;1.00
21259;DHT22;10787;53.364;-1.480;2024-03-29T00:30:24;6.60;99.90
21259;DHT22;10787;53.364;-1.480;2024-03-29T00:33:08;6.60;99.90
21259;DHT22;10787;53.364;-1.480;2024-03-29T00:35:52;6.50;99.90
21259;DHT22;10787;53.364;-1.480;2024-03-29T00:38:37;6.50;99.90
21259;DHT22;10787;53.364;-1.480;2024-03-29T00:41:21;6.40;99.90
21259;DHT22;10787;53.364;-1.480;2024-03-29T00:44:05;6.30;99.90
21259;DHT22;10787;53.364;-1.480;2024-03-29T00:46:49;6.20;99.90
21259;DHT22;10787;53.364;-1.480;2024-03-29T00:49:33;6.10;99.90
21259;DHT22;10787;53.364;-1.480;2024-03-29T00:52:27;6.00;99.90
21259;DHT22;10787;53.364;-1.480;2024-03-29T00:55:11;5.90;99.90
21259;DHT22;10787;53.364;-1.480;2024-03-29T00:57:55;5.90;99.90
21259;DHT22;10787;53.364;-1.480;2024-03-29T01:00:39;5.90;1.00
21259;DHT22;10787;53.364;-1.480;2024-03-29T01:03:24;5.80;1.00
21259;DHT22;10787;53.364;-1.480;2024-03-29T01:06:09;5.80;1.00
21259;DHT22;10787;53.364;-1.480;2024-03-29T01:08:55;5.70;1.00
21259;DHT22;10787;53.364;-1.480;2024-03-29T01:11:40;5.70;1.00
21259;DHT22;10787;53.364;-1.480;2024-03-29T01:14:25;5.70;1.00
21259;DHT22;10787;53.364;-1.480;2024-03-29T01:17:09;5.60;1.00
21259;DHT22;10787;53.364;-1.480;2024-03-29T01:19:53;5.60;1.00
21259;DHT22;10787;53.364;-1.480;2024-03-29T01:22:38;5.60;1.00
21259;DHT22;10787;53.364;-1.480;2024-03-29T01:25:22;5.60;1.00
21259;DHT22;10787;53.364;-1.480;2024-03-29T01:28:08;5.60;1.00
21259;DHT22;10787;53.364;-1.480;2024-03-29T01:30:53;5.70;1.00
21259;DHT22;10787;53.364;-1.480;2024-03-29T01:33:44;5.70;1.00
21259;DHT22;10787;53.364;-1.480;2024-03-29T01:36:29;5.70;1.00
21259;DHT22;10787;53.364;-1.480;2024-03-29T01:39:13;5.70;1.00
21259;DHT22;10787;53.364;-1.480;2024-03-29T01:41:59;5.60;1.00
21259;DHT22;10787;53.364;-1.480;2024-03-29T01:44:43;5.70;1.00
21259;DHT22;10787;53.364;-1.480;2024-03-29T01:47:28;5.60;1.00
21259;DHT22;10787;53.364;-1.480;2024-03-29T01:50:12;5.70;1.00
21259;DHT22;10787;53.364;-1.480;2024-03-29T01:52:57;5.60;1.00
21259;DHT22;10787;53.364;-1.480;2024-03-29T01:55:42;5.60;1.00
21259;DHT22;10787;53.364;-1.480;2024-03-29T01:58:26;5.60;1.00
21259;DHT22;10787;53.364;-1.480;2024-03-29T02:01:12;5.50;1.00
21259;DHT22;10787;53.364;-1.480;2024-03-29T02:03:56;5.50;50.30
21259;DHT22;10787;53.364;-1.480;2024-03-29T02:06:41;5.50;99.90
21259;DHT22;10787;53.364;-1.480;2024-03-29T02:09:26;5.50;1.00
21259;DHT22;10787;53.364;-1.480;2024-03-29T02:12:10;5.50;1.00
21259;DHT22;10787;53.364;-1.480;2024-03-29T02:14:55;5.50;1.00
21259;DHT22;10787;53.364;-1.480;2024-03-29T02:17:39;5.50;1.00
21259;DHT22;10787;53.364;-1.480;2024-03-29T02:20:24;5.50;1.00
21259;DHT22;10787;53.364;-1.480;2024-03-29T02:23:14;5.50;1.00
21259;DHT22;10787;53.364;-1.480;2024-03-29T02:26:00;5.50;1.00
21259;DHT22;10787;53.364;-1.480;2024-03-29T02:28:44;5.50;1.00
21259;DHT22;10787;53.364;-1.480;2024-03-29T02:31:29;5.50;1.00
21259;DHT22;10787;53.364;-1.480;2024-03-29T02:34:13;5.40;1.00
21259;DHT22;10787;53.364;-1.480;2024-03-29T02:36:57;5.40;99.90
21259;DHT22;10787;53.364;-1.480;2024-03-29T02:39:43;5.30;1.00
21259;DHT22;10787;53.364;-1.480;2024-03-29T02:42:27;5.30;1.00
21259;DHT22;10787;53.364;-1.480;2024-03-29T02:45:11;5.30;1.00
21259;DHT22;10787;53.364;-1.480;2024-03-29T02:47:55;5.20;99.90
21259;DHT22;10787;53.364;-1.480;2024-03-29T02:50:39;5.20;99.90
21259;DHT22;10787;53.364;-1.480;2024-03-29T02:53:23;5.10;99.90
21259;DHT22;10787;53.364;-1.480;2024-03-29T02:56:07;5.20;99.90
21259;DHT22;10787;53.364;-1.480;2024-03-29T02:58:51;5.10;99.90
21259;DHT22;10787;53.364;-1.480;2024-03-29T03:01:36;5.10;1.00
21259;DHT22;10787;53.364;-1.480;2024-03-29T03:04:21;5.00;1.00
21259;DHT22;10787;53.364;-1.480;2024-03-29T03:07:05;5.00;1.00
21259;DHT22;10787;53.364;-1.480;2024-03-29T03:10:08;4.90;1.00
21259;DHT22;10787;53.364;-1.480;2024-03-29T03:13:20;4.90;1.00
21259;DHT22;10787;53.364;-1.480;2024-03-29T03:16:04;4.80;22.40
21259;DHT22;10787;53.364;-1.480;2024-03-29T03:18:50;4.80;99.90
21259;DHT22;10787;53.364;-1.480;2024-03-29T03:21:35;4.70;99.90
21259;DHT22;10787;53.364;-1.480;2024-03-29T03:24:19;4.70;99.90
21259;DHT22;10787;53.364;-1.480;2024-03-29T03:27:04;4.70;1.00
21259;DHT22;10787;53.364;-1.480;2024-03-29T03:29:48;4.60;1.00
21259;DHT22;10787;53.364;-1.480;2024-03-29T03:32:33;4.60;1.00
21259;DHT22;10787;53.364;-1.480;2024-03-29T03:35:17;4.60;1.00
21259;DHT22;10787;53.364;-1.480;2024-03-29T03:38:01;4.70;1.00
21259;DHT22;10787;53.364;-1.480;2024-03-29T03:40:46;4.60;1.00
21259;DHT22;10787;53.364;-1.480;2024-03-29T03:43:30;4.60;1.00
21259;DHT22;10787;53.364;-1.480;2024-03-29T03:46:14;4.60;1.00
21259;DHT22;10787;53.364;-1.480;2024-03-29T03:48:59;4.60;14.60
21259;DHT22;10787;53.364;-1.480;2024-03-29T03:51:43;4.60;36.40
21259;DHT22;10787;53.364;-1.480;2024-03-29T03:54:28;4.50;99.90
21259;DHT22;10787;53.364;-1.480;2024-03-29T03:57:13;4.50;99.90
21259;DHT22;10787;53.364;-1.480;2024-03-29T03:59:57;4.50;99.90
21259;DHT22;10787;53.364;-1.480;2024-03-29T04:02:41;4.50;1.00
21259;DHT22;10787;53.364;-1.480;2024-03-29T04:05:25;4.40;1.00
21259;DHT22;10787;53.364;-1.480;2024-03-29T04:08:10;4.40;1.00
21259;DHT22;10787;53.364;-1.480;2024-03-29T04:10:55;4.40;1.00
21259;DHT22;10787;53.364;-1.480;2024-03-29T04:13:39;4.40;1.00
21259;DHT22;10787;53.364;-1.480;2024-03-29T04:16:24;4.40;1.00
21259;DHT22;10787;53.364;-1.480;2024-03-29T04:19:09;4.40;1.00
21259;DHT22;10787;53.364;-1.480;2024-03-29T04:21:53;4.40;1.00
21259;DHT22;10787;53.364;-1.480;2024-03-29T04:24:37;4.50;99.90
21259;DHT22;10787;53.364;-1.480;2024-03-29T04:27:21;4.50;99.90
21259;DHT22;10787;53.364;-1.480;2024-03-29T04:30:06;4.60;1.00
21259;DHT22;10787;53.364;-1.480;2024-03-29T04:32:51;4.60;1.00
21259;DHT22;10787;53.364;-1.480;2024-03-29T04:35:35;4.60;1.00
21259;DHT22;10787;53.364;-1.480;2024-03-29T04:38:19;4.60;1.00
21259;DHT22;10787;53.364;-1.480;2024-03-29T04:41:03;4.60;1.00
21259;DHT22;10787;53.364;-1.480;2024-03-29T04:43:50;4.60;1.00
21259;DHT22;10787;53.364;-1.480;2024-03-29T04:46:34;4.60;1.00
21259;DHT22;10787;53.364;-1.480;2024-03-29T04:49:21;4.60;1.00
21259;DHT22;10787;53.364;-1.480;2024-03-29T04:52:16;4.60;1.00
21259;DHT22;10787;53.364;-1.480;2024-03-29T04:55:00;4.60;1.00
21259;DHT22;10787;53.364;-1.480;2024-03-29T04:57:45;4.60;1.00
21259;DHT22;10787;53.364;-1.480;2024-03-29T05:00:29;4.60;1.00
21259;DHT22;10787;53.364;-1.480;2024-03-29T05:03:14;4.60;1.00
21259;DHT22;10787;53.364;-1.480;2024-03-29T05:05:58;4.60;1.00
21259;DHT22;10787;53.364;-1.480;2024-03-29T05:08:43;4.60;1.00
21259;DHT22;10787;53.364;-1.480;2024-03-29T05:11:28;4.60;99.90
21259;DHT22;10787;53.364;-1.480;2024-03-29T05:14:13;4.60;99.90
21259;DHT22;10787;53.364;-1.480;2024-03-29T05:16:58;4.60;1.00
21259;DHT22;10787;53.364;-1.480;2024-03-29T05:19:42;4.50;99.90
21259;DHT22;10787;53.364;-1.480;2024-03-29T05:22:26;4.50;1.00
21259;DHT22;10787;53.364;-1.480;2024-03-29T05:25:10;4.50;1.00
21259;DHT22;10787;53.364;-1.480;2024-03-29T05:27:55;4.40;1.00
21259;DHT22;10787;53.364;-1.480;2024-03-29T05:30:39;4.40;1.00
21259;DHT22;10787;53.364;-1.480;2024-03-29T05:33:24;4.50;1.00
21259;DHT22;10787;53.364;-1.480;2024-03-29T05:36:08;4.50;1.00
21259;DHT22;10787;53.364;-1.480;2024-03-29T05:38:54;4.50;1.00
21259;DHT22;10787;53.364;-1.480;2024-03-29T05:41:39;4.50;1.00
21259;DHT22;10787;53.364;-1.480;2024-03-29T05:44:23;4.40;1.00
21259;DHT22;10787;53.364;-1.480;2024-03-29T05:47:07;4.40;1.00
21259;DHT22;10787;53.364;-1.480;2024-03-29T05:49:52;4.40;1.00
21259;DHT22;10787;53.364;-1.480;2024-03-29T05:52:36;4.50;99.90
21259;DHT22;10787;53.364;-1.480;2024-03-29T05:55:20;4.60;93.90
21259;DHT22;10787;53.364;-1.480;2024-03-29T05:58:04;4.70;18.90
21259;DHT22;10787;53.364;-1.480;2024-03-29T06:00:50;4.80;99.90
21259;DHT22;10787;53.364;-1.480;2024-03-29T06:03:34;4.80;99.90
21259;DHT22;10787;53.364;-1.480;2024-03-29T06:06:18;4.70;1.00
21259;DHT22;10787;53.364;-1.480;2024-03-29T06:09:06;4.70;99.90
21259;DHT22;10787;53.364;-1.480;2024-03-29T06:11:50;4.70;99.90
21259;DHT22;10787;53.364;-1.480;2024-03-29T06:14:34;4.70;99.90
21259;DHT22;10787;53.364;-1.480;2024-03-29T06:17:37;4.70;99.90
21259;DHT22;10787;53.364;-1.480;2024-03-29T06:20:21;4.60;1.00
21259;DHT22;10787;53.364;-1.480;2024-03-29T06:23:05;4.60;1.00
21259;DHT22;10787;53.364;-1.480;2024-03-29T06:25:50;4.50;1.00
21259;DHT22;10787;53.364;-1.480;2024-03-29T06:28:35;4.50;1.00
21259;DHT22;10787;53.364;-1.480;2024-03-29T06:31:19;4.40;1.00
21259;DHT22;10787;53.364;-1.480;2024-03-29T06:34:03;4.40;99.90
21259;DHT22;10787;53.364;-1.480;2024-03-29T06:36:47;4.40;99.90
21259;DHT22;10787;53.364;-1.480;2024-03-29T06:39:32;4.40;99.90
21259;DHT22;10787;53.364;-1.480;2024-03-29T06:42:17;4.50;99.90
21259;DHT22;10787;53.364;-1.480;2024-03-29T06:45:01;4.70;99.90
21259;DHT22;10787;53.364;-1.480;2024-03-29T06:47:46;4.90;99.90
21259;DHT22;10787;53.364;-1.480;2024-03-29T06:50:30;5.10;99.90
21259;DHT22;10787;53.364;-1.480;2024-03-29T06:53:14;5.30;27.70
21259;DHT22;10787;53.364;-1.480;2024-03-29T06:56:00;5.40;1.00
21259;DHT22;10787;53.364;-1.480;2024-03-29T06:58:45;5.60;99.90
21259;DHT22;10787;53.364;-1.480;2024-03-29T07:01:29;5.70;57.20
21259;DHT22;10787;53.364;-1.480;2024-03-29T07:04:14;5.70;1.00
21259;DHT22;10787;53.364;-1.480;2024-03-29T07:06:59;5.70;1.00
21259;DHT22;10787;53.364;-1.480;2024-03-29T07:09:43;5.70;1.00
21259;DHT22;10787;53.364;-1.480;2024-03-29T07:12:27;5.80;1.00
21259;DHT22;10787;53.364;-1.480;2024-03-29T07:15:12;5.90;1.00
21259;DHT22;10787;53.364;-1.480;2024-03-29T07:17:56;6.00;1.00
21259;DHT22;10787;53.364;-1.480;2024-03-29T07:20:42;6.20;1.00
21259;DHT22;10787;53.364;-1.480;2024-03-29T07:23:26;6.30;99.90
21259;DHT22;10787;53.364;-1.480;2024-03-29T07:26:10;6.50;1.00
21259;DHT22;10787;53.364;-1.480;2024-03-29T07:28:56;6.80;1.00
21259;DHT22;10787;53.364;-1.480;2024-03-29T07:31:40;7.10;1.00
21259;DHT22;10787;53.364;-1.480;2024-03-29T07:34:24;7.30;99.90
21259;DHT22;10787;53.364;-1.480;2024-03-29T07:37:09;7.40;99.90
21259;DHT22;10787;53.364;-1.480;2024-03-29T07:39:58;7.50;1.00
21259;DHT22;10787;53.364;-1.480;2024-03-29T07:42:42;7.50;1.00
21259;DHT22;10787;53.364;-1.480;2024-03-29T07:45:26;7.50;1.00
21259;DHT22;10787;53.364;-1.480;2024-03-29T07:48:13;7.40;1.00
21259;DHT22;10787;53.364;-1.480;2024-03-29T07:50:57;7.50;1.00
21259;DHT22;10787;53.364;-1.480;2024-03-29T07:53:42;7.60;1.00
21259;DHT22;10787;53.364;-1.480;2024-03-29T07:56:27;7.70;1.00
21259;DHT22;10787;53.364;-1.480;2024-03-29T07:59:12;7.70;99.90
21259;DHT22;10787;53.364;-1.480;2024-03-29T08:01:57;7.80;1.00
21259;DHT22;10787;53.364;-1.480;2024-03-29T08:04:42;7.80;99.90
21259;DHT22;10787;53.364;-1.480;2024-03-29T08:07:32;7.80;24.60
21259;DHT22;10787;53.364;-1.480;2024-03-29T08:10:16;7.70;99.90
21259;DHT22;10787;53.364;-1.480;2024-03-29T08:13:00;7.70;99.90
21259;DHT22;10787;53.364;-1.480;2024-03-29T08:15:45;7.70;99.90
21259;DHT22;10787;53.364;-1.480;2024-03-29T08:18:30;7.70;99.90
21259;DHT22;10787;53.364;-1.480;2024-03-29T08:21:14;7.70;99.90
21259;DHT22;10787;53.364;-1.480;2024-03-29T08:23:58;7.80;99.90
21259;DHT22;10787;53.364;-1.480;2024-03-29T08:26:44;7.80;99.90
21259;DHT22;10787;53.364;-1.480;2024-03-29T08:29:29;7.90;99.90
21259;DHT22;10787;53.364;-1.480;2024-03-29T08:32:14;7.80;99.90
21259;DHT22;10787;53.364;-1.480;2024-03-29T08:34:58;7.80;1.00
21259;DHT22;10787;53.364;-1.480;2024-03-29T08:37:43;7.80;1.00
21259;DHT22;10787;53.364;-1.480;2024-03-29T08:40:29;7.90;1.00
21259;DHT22;10787;53.364;-1.480;2024-03-29T08:43:16;7.90;40.70
21259;DHT22;10787;53.364;-1.480;2024-03-29T08:46:02;7.90;1.00
21259;DHT22;10787;53.364;-1.480;2024-03-29T08:48:46;7.80;99.90
21259;DHT22;10787;53.364;-1.480;2024-03-29T08:51:30;7.90;99.90
21259;DHT22;10787;53.364;-1.480;2024-03-29T08:54:14;7.90;1.00
21259;DHT22;10787;53.364;-1.480;2024-03-29T08:56:58;8.00;99.90
21259;DHT22;10787;53.364;-1.480;2024-03-29T08:59:45;8.20;99.90
21259;DHT22;10787;53.364;-1.480;2024-03-29T09:02:29;8.30;99.90
21259;DHT22;10787;53.364;-1.480;2024-03-29T09:05:14;8.40;1.00
21259;DHT22;10787;53.364;-1.480;2024-03-29T09:07:58;8.60;56.50
21259;DHT22;10787;53.364;-1.480;2024-03-29T09:10:42;8.70;99.90
21259;DHT22;10787;53.364;-1.480;2024-03-29T09:13:27;9.00;1.00
21259;DHT22;10787;53.364;-1.480;2024-03-29T09:16:11;9.10;86.70
21259;DHT22;10787;53.364;-1.480;2024-03-29T09:18:55;9.30;1.00
21259;DHT22;10787;53.364;-1.480;2024-03-29T09:21:40;9.60;1.00
21259;DHT22;10787;53.364;-1.480;2024-03-29T09:24:24;9.80;99.90
21259;DHT22;10787;53.364;-1.480;2024-03-29T09:27:10;10.00;1.00
21259;DHT22;10787;53.364;-1.480;2024-03-29T09:29:57;10.10;1.00
21259;DHT22;10787;53.364;-1.480;2024-03-29T09:32:42;10.00;1.00
21259;DHT22;10787;53.364;-1.480;2024-03-29T09:35:27;10.00;1.00
21259;DHT22;10787;53.364;-1.480;2024-03-29T09:38:11;9.90;99.90
21259;DHT22;10787;53.364;-1.480;2024-03-29T09:41:07;10.00;99.90
21259;DHT22;10787;53.364;-1.480;2024-03-29T09:43:57;10.20;99.90
21259;DHT22;10787;53.364;-1.480;2024-03-29T09:46:43;10.40;99.90
21259;DHT22;10787;53.364;-1.480;2024-03-29T09:49:30;10.80;99.90
21259;DHT22;10787;53.364;-1.480;2024-03-29T09:52:15;11.00;99.90
21259;DHT22;10787;53.364;-1.480;2024-03-29T09:55:01;11.00;99.90
21259;DHT22;10787;53.364;-1.480;2024-03-29T09:57:46;11.00;99.90
21259;DHT22;10787;53.364;-1.480;2024-03-29T10:00:31;11.10;99.90
21259;DHT22;10787;53.364;-1.480;2024-03-29T10:03:16;11.10;99.90
21259;DHT22;10787;53.364;-1.480;2024-03-29T10:06:03;11.10;99.90
21259;DHT22;10787;53.364;-1.480;2024-03-29T10:08:47;11.10;99.90
21259;DHT22;10787;53.364;-1.480;2024-03-29T10:11:32;11.00;99.90
21259;DHT22;10787;53.364;-1.480;2024-03-29T10:14:17;10.90;99.90
21259;DHT22;10787;53.364;-1.480;2024-03-29T10:17:02;10.90;99.90
21259;DHT22;10787;53.364;-1.480;2024-03-29T10:19:47;11.10;73.80
21259;DHT22;10787;53.364;-1.480;2024-03-29T10:22:41;11.30;81.60
21259;DHT22;10787;53.364;-1.480;2024-03-29T10:25:27;11.40;99.90
21259;DHT22;10787;53.364;-1.480;2024-03-29T10:28:11;11.40;87.40
21259;DHT22;10787;53.364;-1.480;2024-03-29T10:30:56;11.60;99.90
21259;DHT22;10787;53.364;-1.480;2024-03-29T10:33:42;11.80;85.40
21259;DHT22;10787;53.364;-1.480;2024-03-29T10:36:30;12.10;82.00
21259;DHT22;10787;53.364;-1.480;2024-03-29T10:39:14;12.30;99.90
21259;DHT22;10787;53.364;-1.480;2024-03-29T10:41:59;12.20;99.90
21259;DHT22;10787;53.364;-1.480;2024-03-29T10:44:44;12.20;99.90
21259;DHT22;10787;53.364;-1.480;2024-03-29T10:47:29;12.30;99.90
21259;DHT22;10787;53.364;-1.480;2024-03-29T10:50:14;12.20;99.90
21259;DHT22;10787;53.364;-1.480;2024-03-29T10:53:02;12.00;99.90
21259;DHT22;10787;53.364;-1.480;2024-03-29T10:55:46;12.10;99.90
21259;DHT22;10787;53.364;-1.480;2024-03-29T10:58:35;12.20;99.90
21259;DHT22;10787;53.364;-1.480;2024-03-29T11:01:20;12.30;99.90
21259;DHT22;10787;53.364;-1.480;2024-03-29T11:04:21;12.50;99.90
21259;DHT22;10787;53.364;-1.480;2024-03-29T11:07:16;12.50;99.90
21259;DHT22;10787;53.364;-1.480;2024-03-29T11:10:04;12.30;99.90
21259;DHT22;10787;53.364;-1.480;2024-03-29T11:16:11;11.80;99.90
21259;DHT22;10787;53.364;-1.480;2024-03-29T11:18:56;11.70;99.90
21259;DHT22;10787;53.364;-1.480;2024-03-29T11:21:41;11.80;99.90
21259;DHT22;10787;53.364;-1.480;2024-03-29T11:24:28;12.10;99.90
21259;DHT22;10787;53.364;-1.480;2024-03-29T11:27:13;12.50;1.00
21259;DHT22;10787;53.364;-1.480;2024-03-29T11:29:57;12.80;1.00
21259;DHT22;10787;53.364;-1.480;2024-03-29T11:32:41;13.10;1.00
21259;DHT22;10787;53.364;-1.480;2024-03-29T11:35:26;13.30;1.00
21259;DHT22;10787;53.364;-1.480;2024-03-29T11:38:17;13.50;1.00
21259;DHT22;10787;53.364;-1.480;2024-03-29T11:41:02;13.50;1.00
21259;DHT22;10787;53.364;-1.480;2024-03-29T11:43:47;13.30;1.00
21259;DHT22;10787;53.364;-1.480;2024-03-29T11:46:32;13.40;99.90
21259;DHT22;10787;53.364;-1.480;2024-03-29T11:49:19;13.60;57.30
21259;DHT22;10787;53.364;-1.480;2024-03-29T11:52:04;14.10;99.90
21259;DHT22;10787;53.364;-1.480;2024-03-29T11:54:49;15.20;99.90
21259;DHT22;10787;53.364;-1.480;2024-03-29T11:57:33;16.30;1.00
21259;DHT22;10787;53.364;-1.480;2024-03-29T12:00:18;16.30;1.00
21259;DHT22;10787;53.364;-1.480;2024-03-29T12:03:03;16.10;99.90
21259;DHT22;10787;53.364;-1.480;2024-03-29T12:05:50;15.40;1.00
21259;DHT22;10787;53.364;-1.480;2024-03-29T12:08:43;14.80;88.40
21259;DHT22;10787;53.364;-1.480;2024-03-29T12:11:27;14.10;99.90
21259;DHT22;10787;53.364;-1.480;2024-03-29T12:14:13;13.90;99.90
21259;DHT22;10787;53.364;-1.480;2024-03-29T12:16:57;13.70;99.90
21259;DHT22;10787;53.364;-1.480;2024-03-29T12:19:41;13.80;1.00
21259;DHT22;10787;53.364;-1.480;2024-03-29T12:22:27;14.10;99.90
21259;DHT22;10787;53.364;-1.480;2024-03-29T12:25:12;14.30;1.00
21259;DHT22;10787;53.364;-1.480;2024-03-29T12:27:58;13.80;99.90
21259;DHT22;10787;53.364;-1.480;2024-03-29T12:30:45;13.70;1.00
21259;DHT22;10787;53.364;-1.480;2024-03-29T12:33:29;13.50;1.00
21259;DHT22;10787;53.364;-1.480;2024-03-29T12:36:15;13.20;1.00
21259;DHT22;10787;53.364;-1.480;2024-03-29T12:39:01;13.00;1.00
21259;DHT22;10787;53.364;-1.480;2024-03-29T12:41:47;12.60;1.00
21259;DHT22;10787;53.364;-1.480;2024-03-29T12:44:31;12.20;66.10
21259;DHT22;10787;53.364;-1.480;2024-03-29T12:47:16;11.70;1.00
21259;DHT22;10787;53.364;-1.480;2024-03-29T12:50:01;11.10;99.90
21259;DHT22;10787;53.364;-1.480;2024-03-29T12:52:45;10.80;99.90
21259;DHT22;10787;53.364;-1.480;2024-03-29T12:55:29;10.70;99.90
21259;DHT22;10787;53.364;-1.480;2024-03-29T12:58:19;11.30;99.90
21259;DHT22;10787;53.364;-1.480;2024-03-29T13:01:06;12.60;99.90
21259;DHT22;10787;53.364;-1.480;2024-03-29T13:03:51;14.40;99.90
21259;DHT22;10787;53.364;-1.480;2024-03-29T13:06:35;16.10;1.00
21259;DHT22;10787;53.364;-1.480;2024-03-29T13:09:19;18.00;1.00
21259;DHT22;10787;53.364;-1.480;2024-03-29T13:12:04;19.20;1.00
21259;DHT22;10787;53.364;-1.480;2024-03-29T13:14:48;20.50;1.00
21259;DHT22;10787;53.364;-1.480;2024-03-29T13:17:33;21.20;99.90
21259;DHT22;10787;53.364;-1.480;2024-03-29T13:20:17;22.40;1.00
21259;DHT22;10787;53.364;-1.480;2024-03-29T13:23:02;23.30;99.90
21259;DHT22;10787;53.364;-1.480;2024-03-29T13:25:47;24.00;99.90
21259;DHT22;10787;53.364;-1.480;2024-03-29T13:28:31;24.30;1.00
21259;DHT22;10787;53.364;-1.480;2024-03-29T13:31:15;23.80;1.00
21259;DHT22;10787;53.364;-1.480;2024-03-29T13:34:00;23.20;1.00
21259;DHT22;10787;53.364;-1.480;2024-03-29T13:36:55;21.70;1.00
21259;DHT22;10787;53.364;-1.480;2024-03-29T13:39:40;19.90;1.00
21259;DHT22;10787;53.364;-1.480;2024-03-29T13:42:24;19.40;1.00
21259;DHT22;10787;53.364;-1.480;2024-03-29T13:45:09;19.90;1.00
21259;DHT22;10787;53.364;-1.480;2024-03-29T13:47:56;19.60;1.00
21259;DHT22;10787;53.364;-1.480;2024-03-29T13:50:41;20.00;1.00
21259;DHT22;10787;53.364;-1.480;2024-03-29T13:53:25;19.80;99.90
21259;DHT22;10787;53.364;-1.480;2024-03-29T13:56:10;19.50;1.00
21259;DHT22;10787;53.364;-1.480;2024-03-29T13:58:54;18.60;1.00
21259;DHT22;10787;53.364;-1.480;2024-03-29T14:01:39;18.10;99.90
21259;DHT22;10787;53.364;-1.480;2024-03-29T14:04:23;18.10;1.00
21259;DHT22;10787;53.364;-1.480;2024-03-29T14:07:08;18.80;1.00
21259;DHT22;10787;53.364;-1.480;2024-03-29T14:09:55;20.10;1.00
21259;DHT22;10787;53.364;-1.480;2024-03-29T14:12:39;20.00;1.00
21259;DHT22;10787;53.364;-1.480;2024-03-29T14:15:23;20.50;1.00
21259;DHT22;10787;53.364;-1.480;2024-03-29T14:18:07;21.20;1.00
21259;DHT22;10787;53.364;-1.480;2024-03-29T14:20:52;21.80;1.00
21259;DHT22;10787;53.364;-1.480;2024-03-29T14:23:36;22.40;1.00
21259;DHT22;10787;53.364;-1.480;2024-03-29T14:26:20;22.70;1.00
21259;DHT22;10787;53.364;-1.480;2024-03-29T14:29:04;22.70;1.00
21259;DHT22;10787;53.364;-1.480;2024-03-29T14:31:51;22.10;1.00
21259;DHT22;10787;53.364;-1.480;2024-03-29T14:34:37;21.30;1.00
21259;DHT22;10787;53.364;-1.480;2024-03-29T14:37:28;21.50;1.00
21259;DHT22;10787;53.364;-1.480;2024-03-29T14:40:12;21.00;1.00
21259;DHT22;10787;53.364;-1.480;2024-03-29T14:42:58;20.10;1.00
21259;DHT22;10787;53.364;-1.480;2024-03-29T14:45:43;19.40;1.00
21259;DHT22;10787;53.364;-1.480;2024-03-29T14:48:28;20.10;1.00
21259;DHT22;10787;53.364;-1.480;2024-03-29T14:51:12;19.80;1.00
21259;DHT22;10787;53.364;-1.480;2024-03-29T14:53:56;19.20;1.00
21259;DHT22;10787;53.364;-1.480;2024-03-29T14:56:41;19.00;1.00
21259;DHT22;10787;53.364;-1.480;2024-03-29T14:59:25;19.10;1.00
21259;DHT22;10787;53.364;-1.480;2024-03-29T15:02:14;20.10;1.00
21259;DHT22;10787;53.364;-1.480;2024-03-29T15:04:58;20.10;1.00
21259;DHT22;10787;53.364;-1.480;2024-03-29T15:07:42;19.40;1.00
21259;DHT22;10787;53.364;-1.480;2024-03-29T15:10:27;19.20;1.00
21259;DHT22;10787;53.364;-1.480;2024-03-29T15:13:11;19.10;1.00
21259;DHT22;10787;53.364;-1.480;2024-03-29T15:15:56;18.80;1.00
21259;DHT22;10787;53.364;-1.480;2024-03-29T15:18:41;17.80;1.00
21259;DHT22;10787;53.364;-1.480;2024-03-29T15:21:27;16.90;1.00
21259;DHT22;10787;53.364;-1.480;2024-03-29T15:24:12;16.00;1.00
21259;DHT22;10787;53.364;-1.480;2024-03-29T15:26:57;15.30;1.00
21259;DHT22;10787;53.364;-1.480;2024-03-29T15:29:42;14.80;1.00
21259;DHT22;10787;53.364;-1.480;2024-03-29T15:32:26;14.40;99.90
21259;DHT22;10787;53.364;-1.480;2024-03-29T15:35:14;14.20;40.70
21259;DHT22;10787;53.364;-1.480;2024-03-29T15:37:59;14.00;5.70
21259;DHT22;10787;53.364;-1.480;2024-03-29T15:40:45;13.70;1.00
21259;DHT22;10787;53.364;-1.480;2024-03-29T15:43:29;13.60;1.00
21259;DHT22;10787;53.364;-1.480;2024-03-29T15:46:14;13.50;88.60
21259;DHT22;10787;53.364;-1.480;2024-03-29T15:48:59;13.30;1.00
21259;DHT22;10787;53.364;-1.480;2024-03-29T15:51:43;13.00;1.00
21259;DHT22;10787;53.364;-1.480;2024-03-29T15:54:28;12.80;1.00
21259;DHT22;10787;53.364;-1.480;2024-03-29T15:57:12;12.60;99.90
21259;DHT22;10787;53.364;-1.480;2024-03-29T15:59:56;13.40;99.90
21259;DHT22;10787;53.364;-1.480;2024-03-29T16:02:46;14.70;1.00
21259;DHT22;10787;53.364;-1.480;2024-03-29T16:05:33;15.20;1.00
21259;DHT22;10787;53.364;-1.480;2024-03-29T16:08:18;15.70;99.90
21259;DHT22;10787;53.364;-1.480;2024-03-29T16:11:06;17.00;99.90
21259;DHT22;10787;53.364;-1.480;2024-03-29T16:13:51;18.20;1.00
21259;DHT22;10787;53.364;-1.480;2024-03-29T16:16:35;18.70;56.00
21259;DHT22;10787;53.364;-1.480;2024-03-29T16:19:19;19.60;99.90
21259;DHT22;10787;53.364;-1.480;2024-03-29T16:22:03;19.70;1.00
21259;DHT22;10787;53.364;-1.480;2024-03-29T16:24:48;20.10;99.90
21259;DHT22;10787;53.364;-1.480;2024-03-29T16:27:32;20.60;99.90
21259;DHT22;10787;53.364;-1.480;2024-03-29T16:30:16;21.00;99.90
21259;DHT22;10787;53.364;-1.480;2024-03-29T16:33:01;20.80;1.00
21259;DHT22;10787;53.364;-1.480;2024-03-29T16:35:46;20.20;1.00
21259;DHT22;10787;53.364;-1.480;2024-03-29T16:38:31;20.20;1.00
21259;DHT22;10787;53.364;-1.480;2024-03-29T16:41:16;20.30;99.90
21259;DHT22;10787;53.364;-1.480;2024-03-29T16:44:00;20.60;1.00
21259;DHT22;10787;53.364;-1.480;2024-03-29T16:46:45;21.00;1.00
21259;DHT22;10787;53.364;-1.480;2024-03-29T16:49:28;21.00;1.00
21259;DHT22;10787;53.364;-1.480;2024-03-29T16:52:13;20.50;1.00
21259;DHT22;10787;53.364;-1.480;2024-03-29T16:54:57;19.60;1.00
21259;DHT22;10787;53.364;-1.480;2024-03-29T16:57:41;19.50;99.90
21259;DHT22;10787;53.364;-1.480;2024-03-29T17:00:27;18.90;99.90
21259;DHT22;10787;53.364;-1.480;2024-03-29T17:03:12;17.70;99.90
21259;DHT22;10787;53.364;-1.480;2024-03-29T17:05:56;17.30;1.00
21259;DHT22;10787;53.364;-1.480;2024-03-29T17:08:41;17.00;31.80
21259;DHT22;10787;53.364;-1.480;2024-03-29T17:11:25;16.70;1.00
21259;DHT22;10787;53.364;-1.480;2024-03-29T17:14:09;16.50;1.00
21259;DHT22;10787;53.364;-1.480;2024-03-29T17:16:56;16.30;99.90
21259;DHT22;10787;53.364;-1.480;2024-03-29T17:19:49;16.00;1.00
21259;DHT22;10787;53.364;-1.480;2024-03-29T17:22:33;15.40;1.00
21259;DHT22;10787;53.364;-1.480;2024-03-29T17:25:18;15.00;1.00
21259;DHT22;10787;53.364;-1.480;2024-03-29T17:28:02;14.60;1.00